createdAt,value
2019-05-13T00:08:25.897Z,101652.00
2019-05-13T00:19:10.922Z,101660.00
2019-05-13T00:29:53.915Z,101699.00
2019-05-13T00:40:36.898Z,101734.00
2019-05-13T00:51:16.026Z,101766.00
2019-05-13T01:01:54.724Z,101787.00
2019-05-13T01:12:37.013Z,101797.00
2019-05-13T01:23:19.037Z,101805.00
2019-05-13T01:34:04.059Z,101828.00
2019-05-13T01:44:36.724Z,101845.00
2019-05-13T01:55:19.738Z,101883.00
2019-05-13T02:06:03.846Z,101918.00
2019-05-13T02:16:40.011Z,101934.00
2019-05-13T02:27:22.045Z,101973.00
2019-05-13T02:38:17.868Z,102001.00
2019-05-13T02:48:42.966Z,102005.00
2019-05-13T02:59:23.718Z,102055.00
2019-05-13T03:10:04.443Z,102095.00
2019-05-13T03:20:45.885Z,102137.00
2019-05-13T03:31:26.989Z,102146.00
2019-05-13T03:42:05.862Z,102167.00
2019-05-13T03:52:52.578Z,102193.00
2019-05-13T04:03:27.080Z,102222.00
2019-05-13T04:14:12.145Z,102240.00
2019-05-13T04:24:49.104Z,102247.00
2019-05-13T04:35:25.931Z,102244.00
2019-05-13T04:46:08.910Z,101788.00
2019-05-13T04:57:03.226Z,100204.00
2019-05-13T05:07:47.191Z,99506.00
2019-05-13T05:18:35.917Z,98837.00
2019-05-13T05:29:24.924Z,98718.00
2019-05-13T05:40:12.205Z,98252.00
2019-05-13T05:50:53.925Z,98542.00
2019-05-13T06:01:25.990Z,99311.00
2019-05-13T06:12:02.054Z,99325.00
2019-05-13T06:22:42.405Z,99892.00
2019-05-13T06:33:22.116Z,99534.00
2019-05-13T06:44:05.205Z,99662.00
2019-05-13T06:54:47.875Z,100016.00
2019-05-13T07:05:25.636Z,100516.00
2019-05-13T07:16:03.315Z,100830.00
2019-05-13T07:26:45.999Z,100932.00
2019-05-13T07:37:28.875Z,101076.00
2019-05-13T07:48:20.688Z,101062.00
2019-05-13T07:58:54.908Z,101039.00
2019-05-13T08:09:41.707Z,100985.00
2019-05-13T08:20:22.112Z,100963.00
2019-05-13T08:31:05.900Z,100837.00
2019-05-13T08:41:51.630Z,100683.00
2019-05-13T08:52:31.191Z,100795.00
2019-05-13T09:03:06.292Z,100787.00
2019-05-13T09:13:51.434Z,100586.00
2019-05-13T09:24:34.216Z,100639.00
2019-05-13T09:35:12.001Z,100571.00
2019-05-13T09:45:54.991Z,100506.00
2019-05-13T09:56:36.767Z,100446.00
2019-05-13T10:07:13.825Z,100217.00
2019-05-13T10:17:52.743Z,100207.00
2019-05-13T10:28:35.271Z,100209.00
2019-05-13T10:39:17.968Z,100190.00
2019-05-13T10:50:02.760Z,100113.00
2019-05-13T11:00:45.340Z,100111.00
2019-05-13T11:11:27.151Z,100039.00
2019-05-13T11:22:12.262Z,100000.00
2019-05-13T11:32:55.232Z,99919.00
2019-05-13T11:43:41.717Z,99850.00
2019-05-13T11:54:22.503Z,99748.00
2019-05-13T12:05:06.802Z,99828.00
2019-05-13T12:15:50.052Z,99718.00
2019-05-13T12:26:33.279Z,99662.00
2019-05-13T12:37:21.936Z,99542.00
2019-05-13T12:48:03.284Z,99591.00
2019-05-13T12:58:38.346Z,99598.00
2019-05-13T13:09:18.539Z,99499.00
2019-05-13T13:20:08.804Z,99561.00
2019-05-13T13:30:43.856Z,99385.00
2019-05-13T13:41:22.593Z,99439.00
2019-05-13T13:51:57.210Z,99401.00
2019-05-13T14:02:43.077Z,99447.00
2019-05-13T14:13:22.396Z,99428.00
2019-05-13T14:24:06.339Z,99446.00
2019-05-13T14:34:51.933Z,99343.00
2019-05-13T14:45:31.891Z,99210.00
2019-05-13T14:56:14.390Z,99281.00
2019-05-13T15:06:55.553Z,99366.00
2019-05-13T15:17:37.336Z,99348.00
2019-05-13T15:28:25.770Z,99380.00
2019-05-13T15:39:01.618Z,99354.00
2019-05-13T15:49:46.758Z,99288.00
2019-05-13T16:00:15.360Z,99251.00
2019-05-13T16:10:54.034Z,99263.00
2019-05-13T16:21:31.440Z,99336.00
2019-05-13T16:32:12.267Z,99388.00
2019-05-13T16:42:55.253Z,99412.00
2019-05-13T16:53:36.247Z,99405.00
2019-05-13T17:04:21.377Z,99346.00
2019-05-13T17:14:55.579Z,99388.00
2019-05-13T17:25:30.158Z,99424.00
2019-05-13T17:36:14.017Z,99473.00
2019-05-13T17:47:01.769Z,99446.00
2019-05-13T17:57:35.676Z,99532.00
2019-05-13T18:08:17.693Z,99534.00
2019-05-13T18:18:58.173Z,99625.00
2019-05-13T18:29:38.094Z,99669.00
2019-05-13T18:40:18.571Z,99756.00
2019-05-13T18:50:53.560Z,99809.00
2019-05-13T19:01:32.066Z,99859.00
2019-05-13T19:12:02.457Z,99954.00
2019-05-13T19:22:34.588Z,99995.00
2019-05-13T19:33:09.011Z,100062.00
2019-05-13T19:43:44.419Z,100123.00
2019-05-13T19:54:15.511Z,100158.00
2019-05-13T20:04:53.837Z,100248.00
2019-05-13T20:15:31.511Z,100339.00
2019-05-13T20:26:09.415Z,100413.00
2019-05-13T20:36:45.528Z,100487.00
2019-05-13T20:47:21.383Z,100585.00
2019-05-13T20:57:54.253Z,100642.00
2019-05-13T21:08:37.242Z,100727.00
2019-05-13T21:19:22.366Z,100768.00
2019-05-13T21:30:07.985Z,100844.00
2019-05-13T21:40:35.412Z,100887.00
2019-05-13T21:51:21.912Z,100943.00
2019-05-13T22:01:52.534Z,100993.00
2019-05-13T22:12:33.320Z,101042.00
2019-05-13T22:23:16.641Z,101097.00
2019-05-13T22:34:01.458Z,101106.00
2019-05-13T22:44:43.775Z,101142.00
2019-05-13T22:55:27.331Z,101158.00
2019-05-13T23:06:07.454Z,101200.00
2019-05-13T23:16:48.438Z,101216.00
2019-05-13T23:27:25.495Z,101247.00
2019-05-13T23:38:06.367Z,101257.00
2019-05-13T23:48:48.653Z,101217.00
2019-05-13T23:59:31.391Z,101214.00
